Airfield :
LOGIN :

Register | Disclaimer

   EN    FR    IT 

 










Legend :    VFR   Marginal VFR   IFR   Intensive IFR   Very Intensive IFR
Visi :
Ceiling :
>= 8 km
>= 3000ft
5 to 8 km
1000 to 3000 ft
1500m to 5 km
500 to 1000 ft
800 to 1500m
200 to 500 ft
< 800m
< 200 ft
Symbols :   Thunderstorms  Fog  Heavy snow  Heavy precipitations  Wind > 20 kt
SIGMETs :     Misc.  Thunderstorms  Icing  Turbulence  Mountain Waves  Volcanic Ashes






- Airport Elevation : 257 ft
- IATA code : MAN


EGCC - Manchester

CURRENT METAR :
  • 161220Z AUTO 20006KT 150V230 9999 NCD 13/09 Q1018 NOSIG

EXPIRED METARs :
  • 161150Z AUTO 20004KT 160V240 9999 NCD 13/09 Q1019 NOSIG
  • 161120Z AUTO 19005KT 140V230 9999 NCD 12/08 Q1019
  • 161050Z AUTO 18004KT 110V230 9999 NCD 12/08 Q1019 NOSIG
  • 161020Z AUTO 18005KT 130V230 9999 NCD 11/08 Q1019 NOSIG
  • 160950Z AUTO 18004KT 140V220 9999 NCD 11/07 Q1019 NOSIG

TAF TAF EGCC
Valid from the 16 at 12:00 until the 17 at 18:00 UTC


161100Z 1612/1718 18009KT 9999 SCT040
TEMPO 1623/1708 6000 RA
PROB30
TEMPO 1702/1708 3000 +RA BKN012
BECMG 1708/1711 BKN012
PROB30
TEMPO 1708/1718 6000 -RADZ BKN008
ATIS : +44 161 499 2324



MET'MAP, your aeronautical weather chart ! - Copyright ORBIFLY December 2007 - Disclaimer

ORBIFLY MET'MAP TEAM :

Programming & Development : Alexandra Zaïnal
Concept & original design : Baudouin d'Aumeries
Assistance for programming : Marc-Olivier Méhu
Technical & hardware support : Manuel Goepfert

Contact : metmap@orbifly.com




SOURCES & CREDITS :

   NOAA